createdAt,value
2023-05-03T05:03:07.098Z,25.00
2023-05-03T05:04:08.215Z,25.00
2023-05-03T05:05:08.005Z,25.00
2023-05-03T05:06:07.086Z,25.00
2023-05-03T05:07:07.048Z,25.00
2023-05-03T05:08:08.081Z,25.00
2023-05-03T05:09:07.067Z,0.00
2023-05-03T05:10:07.119Z,0.00
2023-05-03T05:11:07.185Z,0.00
2023-05-03T05:12:07.247Z,0.00
2023-05-03T05:13:08.258Z,0.00
2023-05-03T05:14:08.293Z,0.00
2023-05-03T05:15:07.298Z,0.00
2023-05-03T05:16:07.328Z,0.00
2023-05-03T05:17:07.426Z,0.00
2023-05-03T05:18:08.423Z,0.00
2023-05-03T05:19:08.385Z,0.00
2023-05-03T05:20:08.408Z,0.00
2023-05-03T05:21:08.426Z,0.00
2023-05-03T05:22:08.437Z,0.00
2023-05-03T05:23:07.443Z,0.00
2023-05-03T05:24:08.472Z,0.00
2023-05-03T05:25:07.473Z,0.00
2023-05-03T05:26:07.476Z,22.39
2023-05-03T05:27:07.485Z,25.30
2023-05-03T05:28:07.487Z,27.37
2023-05-03T05:29:07.526Z,24.22
2023-05-03T05:30:07.522Z,25.32
2023-05-03T05:31:08.574Z,27.42
2023-05-03T05:32:08.557Z,25.37
2023-05-03T05:33:08.598Z,25.81
2023-05-03T05:34:08.581Z,26.28
2023-05-03T05:35:08.574Z,25.00
2023-05-03T05:36:08.571Z,25.41
2023-05-03T05:37:07.617Z,25.03
2023-05-03T05:38:08.594Z,27.21
2023-05-03T05:39:07.615Z,25.00
2023-05-03T05:40:07.613Z,26.46
2023-05-03T05:41:07.630Z,26.86
2023-05-03T05:42:08.630Z,27.91
2023-05-03T05:43:08.633Z,29.08
2023-05-03T05:44:07.627Z,26.68
2023-05-03T05:45:08.651Z,27.18
2023-05-03T05:46:08.654Z,26.94
2023-05-03T05:47:09.031Z,26.95
2023-05-03T05:48:08.703Z,26.93
2023-05-03T05:49:07.699Z,28.44
2023-05-03T05:50:17.123Z,28.18
2023-05-03T05:51:08.681Z,28.22
2023-05-03T05:52:07.679Z,25.66
2023-05-03T05:53:07.692Z,23.67
2023-05-03T05:54:08.662Z,22.44
2023-05-03T05:55:08.651Z,18.09
2023-05-03T05:56:07.656Z,25.22
2023-05-03T05:57:07.652Z,25.96
2023-05-03T05:58:08.633Z,26.33
2023-05-03T05:59:07.614Z,27.66
2023-05-03T06:00:08.626Z,28.09
2023-05-03T06:01:08.624Z,23.87
2023-05-03T06:02:08.742Z,28.63
2023-05-03T06:03:08.617Z,27.78
2023-05-03T06:04:08.592Z,27.15
2023-05-03T06:05:08.596Z,27.48
2023-05-03T06:06:07.622Z,25.77
2023-05-03T06:07:07.578Z,29.42
2023-05-03T06:08:07.553Z,30.43
2023-05-03T06:09:17.122Z,33.05
2023-05-03T06:10:08.585Z,32.02
2023-05-03T06:11:08.548Z,29.94
2023-05-03T06:12:07.557Z,30.88
2023-05-03T06:13:08.524Z,33.47
2023-05-03T06:14:07.513Z,34.15
2023-05-03T06:15:08.522Z,34.89
2023-05-03T06:16:08.507Z,37.99
2023-05-03T06:17:07.563Z,40.43
2023-05-03T06:18:08.519Z,61.21
2023-05-03T06:19:07.492Z,68.21
2023-05-03T06:20:07.567Z,61.42
2023-05-03T06:21:08.630Z,59.82
2023-05-03T06:22:07.965Z,57.08
2023-05-03T06:23:08.774Z,58.26
2023-05-03T06:24:07.796Z,57.22
2023-05-03T06:25:08.898Z,54.92
2023-05-03T06:26:08.987Z,55.92
2023-05-03T06:27:09.010Z,56.30
2023-05-03T06:28:08.011Z,54.68
2023-05-03T06:29:09.081Z,56.99
2023-05-03T06:30:09.133Z,59.79
2023-05-03T06:31:09.202Z,62.98
2023-05-03T06:32:09.253Z,59.95
2023-05-03T06:33:09.294Z,62.40
2023-05-03T06:34:10.262Z,61.54
2023-05-03T06:35:09.381Z,62.76
2023-05-03T06:36:09.376Z,63.34
2023-05-03T06:37:09.472Z,65.38
2023-05-03T06:38:08.455Z,63.25
2023-05-03T06:39:08.498Z,63.56
2023-05-03T06:40:08.563Z,66.25
2023-05-03T06:41:08.582Z,68.30
2023-05-03T06:42:09.620Z,67.99
2023-05-03T06:43:09.643Z,68.80
2023-05-03T06:44:09.702Z,67.24
2023-05-03T06:45:09.739Z,68.64
2023-05-03T06:46:08.814Z,68.32
2023-05-03T06:47:09.834Z,70.07
2023-05-03T06:48:09.906Z,70.11
2023-05-03T06:49:10.022Z,66.60
2023-05-03T06:50:09.862Z,69.66
2023-05-03T06:51:09.908Z,66.14
2023-05-03T06:52:11.466Z,73.81
2023-05-03T06:53:09.406Z,74.55
2023-05-03T06:54:08.932Z,78.31
2023-05-03T06:55:09.955Z,76.43
2023-05-03T06:56:08.939Z,80.92
2023-05-03T06:57:09.919Z,76.25
2023-05-03T06:58:10.228Z,77.46
2023-05-03T06:59:09.913Z,75.37
2023-05-03T07:00:08.912Z,76.03
2023-05-03T07:01:08.960Z,77.78
2023-05-03T07:02:09.904Z,73.43
2023-05-03T07:03:10.308Z,72.24
2023-05-03T07:04:09.949Z,77.66
2023-05-03T07:05:08.860Z,79.22
2023-05-03T07:06:08.956Z,79.17
2023-05-03T07:07:09.886Z,73.75
2023-05-03T07:08:09.833Z,78.68
2023-05-03T07:09:08.901Z,72.54
2023-05-03T07:10:08.827Z,74.44
2023-05-03T07:11:08.806Z,74.95
2023-05-03T07:12:08.814Z,75.19
2023-05-03T07:13:09.799Z,73.01
2023-05-03T07:14:09.793Z,73.50
2023-05-03T07:15:09.780Z,74.58
2023-05-03T07:16:09.813Z,69.38
2023-05-03T07:17:09.756Z,74.51
2023-05-03T07:18:09.848Z,70.32
2023-05-03T07:19:08.750Z,71.88
2023-05-03T07:20:08.737Z,71.13
2023-05-03T07:21:09.545Z,70.03
2023-05-03T07:22:09.728Z,67.79
2023-05-03T07:23:09.733Z,69.74
2023-05-03T07:24:09.719Z,65.44
2023-05-03T07:25:09.904Z,62.79
2023-05-03T07:26:08.705Z,60.97
2023-05-03T07:27:09.710Z,63.90
2023-05-03T07:28:08.688Z,59.54
2023-05-03T07:29:09.721Z,60.52
2023-05-03T07:30:09.685Z,55.77
2023-05-03T07:31:09.660Z,51.20
2023-05-03T07:32:09.667Z,56.25
2023-05-03T07:33:08.801Z,51.65
2023-05-03T07:34:08.664Z,54.98
2023-05-03T07:35:09.660Z,50.42
2023-05-03T07:36:08.635Z,50.12
2023-05-03T07:37:09.627Z,49.05
2023-05-03T07:38:08.636Z,44.83
2023-05-03T07:39:09.628Z,49.43
2023-05-03T07:40:09.617Z,47.04
2023-05-03T07:41:08.689Z,42.12
2023-05-03T07:42:09.684Z,45.60
2023-05-03T07:43:09.601Z,48.12
2023-05-03T07:44:09.652Z,46.30
2023-05-03T07:45:09.675Z,45.69
2023-05-03T07:46:09.649Z,47.77
2023-05-03T07:47:08.613Z,48.88
2023-05-03T07:48:08.790Z,53.46
2023-05-03T07:49:08.652Z,51.83
2023-05-03T07:50:09.645Z,47.55
2023-05-03T07:51:08.665Z,52.19
2023-05-03T07:52:09.695Z,50.11
2023-05-03T07:53:09.762Z,41.64
2023-05-03T07:54:09.718Z,38.48
2023-05-03T07:55:08.747Z,35.03
2023-05-03T07:56:09.781Z,26.82
2023-05-03T07:57:10.069Z,29.51
2023-05-03T07:58:08.846Z,28.34
2023-05-03T07:59:10.608Z,30.06
2023-05-03T08:00:09.863Z,28.34
2023-05-03T08:01:09.879Z,29.76
2023-05-03T08:02:08.967Z,31.07
2023-05-03T08:03:10.221Z,27.71
2023-05-03T08:04:10.085Z,27.92
2023-05-03T08:05:09.023Z,31.90
2023-05-03T08:06:10.083Z,27.88
2023-05-03T08:07:08.991Z,27.75
2023-05-03T08:08:09.994Z,26.80
2023-05-03T08:09:10.033Z,25.28
2023-05-03T08:10:10.040Z,26.25
2023-05-03T08:11:10.140Z,27.40
2023-05-03T08:12:09.117Z,30.10
2023-05-03T08:13:10.115Z,31.13
2023-05-03T08:14:10.089Z,31.50
2023-05-03T08:15:10.109Z,27.74
2023-05-03T08:16:10.154Z,28.63
2023-05-03T08:17:09.144Z,28.08
2023-05-03T08:18:09.254Z,26.02
2023-05-03T08:19:10.203Z,27.04
2023-05-03T08:20:10.214Z,29.24
2023-05-03T08:21:10.243Z,29.58
2023-05-03T08:22:10.262Z,30.72
2023-05-03T08:23:09.788Z,26.78
2023-05-03T08:24:09.311Z,25.90
2023-05-03T08:25:10.322Z,28.52
2023-05-03T08:26:10.352Z,30.98
2023-05-03T08:27:10.340Z,26.23
2023-05-03T08:28:09.390Z,32.11
2023-05-03T08:29:09.418Z,32.96
2023-05-03T08:30:09.417Z,34.43
2023-05-03T08:31:10.507Z,37.64
2023-05-03T08:32:09.455Z,36.24
2023-05-03T08:33:10.557Z,34.25
2023-05-03T08:34:10.492Z,30.43
2023-05-03T08:35:10.525Z,27.28
2023-05-03T08:36:09.528Z,32.74
2023-05-03T08:37:10.585Z,30.74
2023-05-03T08:38:10.598Z,30.36
2023-05-03T08:39:10.623Z,26.39
2023-05-03T08:40:09.655Z,29.99
2023-05-03T08:41:09.649Z,25.45
2023-05-03T08:42:10.671Z,0.00
2023-05-03T08:43:10.785Z,0.00
2023-05-03T08:44:09.763Z,0.00
2023-05-03T08:45:10.970Z,0.00
2023-05-03T08:46:10.908Z,55.35
2023-05-03T08:47:10.925Z,42.06
2023-05-03T08:48:10.931Z,88.28
2023-05-03T08:49:10.932Z,56.19
2023-05-03T08:50:10.926Z,43.99
2023-05-03T08:51:10.918Z,18.99
2023-05-03T08:52:10.931Z,59.70
2023-05-03T08:53:10.967Z,103.18
2023-05-03T08:54:10.012Z,75.01
2023-05-03T08:55:10.048Z,65.86
2023-05-03T08:56:11.113Z,50.83
2023-05-03T08:57:10.153Z,22.92
2023-05-03T08:58:10.282Z,44.07
2023-05-03T08:59:11.227Z,51.69
2023-05-03T09:00:10.170Z,18.83
2023-05-03T09:01:10.221Z,28.80
2023-05-03T09:02:10.286Z,96.87
2023-05-03T09:03:11.356Z,85.84
2023-05-03T09:04:10.353Z,106.04
2023-05-03T09:05:10.408Z,121.15
2023-05-03T09:06:10.373Z,114.09
2023-05-03T09:07:11.424Z,119.50
2023-05-03T09:08:10.482Z,69.61
2023-05-03T09:09:10.537Z,99.27
2023-05-03T09:10:11.598Z,87.53
2023-05-03T09:11:10.612Z,75.43
2023-05-03T09:12:10.647Z,90.85
2023-05-03T09:13:10.817Z,121.37
2023-05-03T09:14:11.755Z,116.19
2023-05-03T09:15:10.818Z,14.49
2023-05-03T09:16:11.888Z,81.40
2023-05-03T09:17:11.766Z,119.09
2023-05-03T09:18:11.939Z,121.60
2023-05-03T09:19:12.106Z,113.99
2023-05-03T09:20:11.936Z,68.74
2023-05-03T09:21:11.908Z,49.25
2023-05-03T09:22:11.897Z,106.23
2023-05-03T09:23:11.952Z,103.95
2023-05-03T09:24:12.001Z,136.53
2023-05-03T09:25:11.017Z,145.32
2023-05-03T09:26:11.040Z,150.79
2023-05-03T09:27:11.039Z,160.72
2023-05-03T09:28:12.092Z,170.46
2023-05-03T09:29:12.145Z,175.52
2023-05-03T09:30:11.181Z,176.08
2023-05-03T09:31:13.480Z,178.27
2023-05-03T09:32:12.411Z,189.29
2023-05-03T09:33:12.342Z,176.05
2023-05-03T09:34:11.525Z,172.93
2023-05-03T09:35:12.434Z,199.38
2023-05-03T09:36:12.487Z,162.94
2023-05-03T09:37:12.549Z,185.30
2023-05-03T09:38:11.587Z,110.14
2023-05-03T09:39:12.576Z,130.67
2023-05-03T09:40:12.597Z,154.53
2023-05-03T09:41:12.596Z,137.11
2023-05-03T09:42:11.615Z,113.89
2023-05-03T09:43:12.644Z,122.30
2023-05-03T09:44:12.675Z,139.69
2023-05-03T09:45:12.702Z,114.42
2023-05-03T09:46:12.774Z,25.59
2023-05-03T09:47:12.718Z,106.22
2023-05-03T09:48:12.868Z,175.66
2023-05-03T09:49:12.787Z,196.38
2023-05-03T09:50:12.793Z,197.65
2023-05-03T09:51:11.786Z,198.39
2023-05-03T09:52:11.877Z,192.88
2023-05-03T09:53:12.307Z,196.37
2023-05-03T09:54:11.951Z,197.29
2023-05-03T09:55:13.023Z,202.64
2023-05-03T09:56:12.063Z,209.01
2023-05-03T09:57:12.133Z,215.07
2023-05-03T09:58:13.242Z,224.00
2023-05-03T09:59:13.313Z,224.14
2023-05-03T10:00:12.299Z,224.70
2023-05-03T10:01:13.388Z,227.34
2023-05-03T10:02:12.410Z,231.49
2023-05-03T10:03:13.489Z,239.66
2023-05-03T10:04:12.609Z,240.50
2023-05-03T10:05:13.554Z,249.08
2023-05-03T10:06:13.616Z,247.86
2023-05-03T10:07:13.642Z,248.83
2023-05-03T10:08:13.724Z,249.53
2023-05-03T10:09:12.734Z,248.26
2023-05-03T10:10:12.782Z,250.57
2023-05-03T10:11:13.840Z,246.47
2023-05-03T10:12:13.878Z,248.67
2023-05-03T10:13:13.960Z,249.01
2023-05-03T10:14:12.976Z,248.44
2023-05-03T10:15:14.021Z,250.00
2023-05-03T10:16:13.094Z,248.52
2023-05-03T10:17:14.105Z,247.51
2023-05-03T10:18:13.257Z,247.50
2023-05-03T10:19:14.382Z,248.07
2023-05-03T10:20:13.360Z,249.32
2023-05-03T10:21:14.285Z,250.00
2023-05-03T10:22:13.386Z,250.00
2023-05-03T10:23:14.365Z,244.85
2023-05-03T10:24:14.811Z,247.27
2023-05-03T10:25:15.920Z,247.15
2023-05-03T10:26:14.448Z,248.30
2023-05-03T10:27:13.436Z,243.37
2023-05-03T10:28:14.430Z,241.35
2023-05-03T10:29:14.414Z,241.24
2023-05-03T10:30:13.499Z,244.28
2023-05-03T10:31:14.408Z,242.92
2023-05-03T10:32:13.499Z,245.65
2023-05-03T10:33:14.656Z,242.11
2023-05-03T10:34:14.414Z,245.97
2023-05-03T10:35:13.378Z,246.48
2023-05-03T10:36:13.409Z,247.05
2023-05-03T10:37:14.352Z,248.00
2023-05-03T10:38:14.337Z,249.53
2023-05-03T10:39:13.343Z,246.28
2023-05-03T10:40:14.334Z,249.94
2023-05-03T10:41:13.339Z,249.83
2023-05-03T10:42:14.313Z,247.64
2023-05-03T10:43:14.366Z,245.91
2023-05-03T10:44:14.364Z,247.16
2023-05-03T10:45:14.319Z,247.31
2023-05-03T10:46:14.337Z,248.35
2023-05-03T10:47:14.279Z,247.12
2023-05-03T10:48:14.276Z,247.85
2023-05-03T10:49:14.261Z,245.80
2023-05-03T10:50:14.276Z,247.26
2023-05-03T10:51:13.252Z,247.12
2023-05-03T10:52:14.263Z,246.34
2023-05-03T10:53:14.225Z,247.34
2023-05-03T10:54:13.219Z,246.10
2023-05-03T10:55:14.250Z,248.51
2023-05-03T10:56:14.327Z,248.42
2023-05-03T10:57:14.201Z,248.52
2023-05-03T10:58:14.191Z,248.29
2023-05-03T10:59:13.191Z,250.00
2023-05-03T11:00:14.174Z,249.70
2023-05-03T11:01:14.188Z,249.64
2023-05-03T11:02:13.202Z,248.15
2023-05-03T11:03:13.230Z,246.29
2023-05-03T11:04:14.295Z,246.70
2023-05-03T11:05:13.329Z,246.11
2023-05-03T11:06:14.362Z,245.85
2023-05-03T11:07:13.326Z,246.67
2023-05-03T11:08:13.494Z,247.95
2023-05-03T11:09:13.360Z,247.68
2023-05-03T11:10:14.481Z,243.43
2023-05-03T11:11:13.413Z,247.58
2023-05-03T11:12:13.439Z,244.35
2023-05-03T11:13:14.444Z,248.84
2023-05-03T11:14:14.483Z,245.83
2023-05-03T11:15:13.514Z,247.94
2023-05-03T11:16:14.554Z,249.09
2023-05-03T11:17:14.584Z,248.68
2023-05-03T11:18:14.630Z,248.14
2023-05-03T11:19:14.600Z,249.07
2023-05-03T11:20:13.629Z,247.97
2023-05-03T11:21:14.654Z,250.00
2023-05-03T11:22:13.687Z,250.00
2023-05-03T11:23:13.703Z,249.16
2023-05-03T11:24:13.893Z,249.60
2023-05-03T11:25:14.743Z,247.18
2023-05-03T11:26:13.765Z,247.05
2023-05-03T11:27:13.876Z,247.37
2023-05-03T11:28:14.802Z,240.51
2023-05-03T11:29:13.856Z,234.45
2023-05-03T11:30:14.915Z,233.90
2023-05-03T11:31:13.931Z,228.94
2023-05-03T11:32:14.079Z,229.11
2023-05-03T11:33:14.969Z,227.67
2023-05-03T11:34:13.970Z,219.89
2023-05-03T11:35:14.985Z,217.03
2023-05-03T11:36:15.019Z,214.42
2023-05-03T11:37:15.012Z,203.61
2023-05-03T11:38:15.064Z,201.42
2023-05-03T11:39:15.093Z,196.58
2023-05-03T11:40:15.117Z,194.34
2023-05-03T11:41:14.115Z,193.95
2023-05-03T11:42:15.256Z,198.32
2023-05-03T11:43:15.188Z,201.58
2023-05-03T11:44:17.898Z,203.48
2023-05-03T11:45:15.166Z,203.73
2023-05-03T11:46:15.198Z,204.60
2023-05-03T11:47:14.179Z,205.95
2023-05-03T11:48:14.543Z,208.39
2023-05-03T11:49:15.146Z,210.46
2023-05-03T11:50:15.124Z,211.90
2023-05-03T11:51:14.104Z,215.06
2023-05-03T11:52:15.119Z,218.27
2023-05-03T11:53:14.105Z,218.04
2023-05-03T11:54:25.357Z,215.86
2023-05-03T11:55:15.092Z,216.11
2023-05-03T11:56:15.120Z,216.57
2023-05-03T11:57:14.081Z,218.09
2023-05-03T11:58:15.063Z,219.50
2023-05-03T11:59:15.074Z,222.94
2023-05-03T12:00:15.063Z,222.87
2023-05-03T12:01:14.048Z,223.28
2023-05-03T12:02:14.374Z,220.45
2023-05-03T12:03:14.293Z,225.96
2023-05-03T12:04:14.217Z,226.55
2023-05-03T12:05:15.983Z,226.77
2023-05-03T12:06:15.953Z,224.69
2023-05-03T12:07:18.402Z,227.69
2023-05-03T12:08:16.213Z,227.78
2023-05-03T12:09:14.286Z,227.88
2023-05-03T12:10:19.525Z,228.41
2023-05-03T12:11:17.370Z,227.95
2023-05-03T12:12:18.254Z,227.97
2023-05-03T12:13:17.382Z,228.05
2023-05-03T12:14:16.091Z,228.20
2023-05-03T12:15:16.318Z,228.01
2023-05-03T12:16:15.592Z,228.23
2023-05-03T12:17:15.927Z,227.97
2023-05-03T12:18:15.349Z,228.35
2023-05-03T12:19:15.780Z,228.54
2023-05-03T12:20:51.244Z,229.94
2023-05-03T12:22:25.284Z,227.93
2023-05-03T12:23:15.656Z,228.07
2023-05-03T12:24:14.971Z,228.60
2023-05-03T12:26:14.559Z,233.04
2023-05-03T12:27:14.380Z,231.55
2023-05-03T12:28:20.436Z,233.72
2023-05-03T12:29:14.942Z,232.56
2023-05-03T12:31:16.147Z,228.52
2023-05-03T12:32:14.944Z,233.22
2023-05-03T12:33:15.621Z,233.88
2023-05-03T12:34:32.694Z,234.86
2023-05-03T12:35:15.013Z,233.98
2023-05-03T12:36:15.202Z,234.02
2023-05-03T12:37:16.930Z,235.14
2023-05-03T12:38:16.267Z,234.07
2023-05-03T12:40:32.528Z,234.90
2023-05-03T12:41:21.504Z,235.39
2023-05-03T12:42:15.132Z,236.13
2023-05-03T12:43:14.858Z,237.59
2023-05-03T12:44:16.769Z,249.97
2023-05-03T12:45:14.198Z,237.78
2023-05-03T12:46:33.040Z,253.83
2023-05-03T12:48:13.924Z,254.29
2023-05-03T12:49:15.194Z,284.67
2023-05-03T12:50:17.116Z,325.71
2023-05-03T12:52:36.315Z,239.17
2023-05-03T12:53:17.086Z,239.21
2023-05-03T12:54:18.600Z,239.47
2023-05-03T12:56:13.869Z,259.23
2023-05-03T12:57:15.828Z,293.33
2023-05-03T12:58:40.221Z,240.31
2023-05-03T13:00:15.648Z,239.39
2023-05-03T13:01:48.045Z,240.72
2023-05-03T13:05:24.452Z,239.97
2023-05-03T13:06:15.268Z,240.11
2023-05-03T13:07:14.182Z,260.73
2023-05-03T13:08:20.827Z,296.10
2023-05-03T13:09:20.618Z,239.81
2023-05-03T13:11:13.957Z,240.02
2023-05-03T13:12:13.774Z,260.73
2023-05-03T13:13:14.672Z,296.29
2023-05-03T13:14:14.653Z,346.70
2023-05-03T13:15:14.662Z,408.19
2023-05-03T13:16:14.863Z,373.99
2023-05-03T13:17:13.641Z,341.72
2023-05-03T13:18:13.702Z,315.15
2023-05-03T13:19:14.640Z,290.31
2023-05-03T13:20:13.606Z,270.21
2023-05-03T13:21:14.611Z,255.90
2023-05-03T13:22:13.602Z,248.92
2023-05-03T13:23:14.596Z,247.45
2023-05-03T13:24:14.585Z,247.45
2023-05-03T13:25:14.578Z,245.68
2023-05-03T13:26:13.564Z,244.57
2023-05-03T13:27:14.561Z,244.16
2023-05-03T13:28:14.541Z,244.50
2023-05-03T13:29:13.556Z,243.93
2023-05-03T13:30:14.548Z,243.25
2023-05-03T13:31:13.527Z,242.87
2023-05-03T13:32:13.597Z,241.57
2023-05-03T13:33:13.642Z,241.24
2023-05-03T13:34:14.512Z,238.57
2023-05-03T13:35:13.532Z,238.89
2023-05-03T13:36:14.508Z,237.47
2023-05-03T13:37:14.529Z,236.22
2023-05-03T13:38:13.547Z,237.79
2023-05-03T13:39:14.551Z,235.78
2023-05-03T13:40:14.553Z,235.72
2023-05-03T13:41:14.552Z,235.80
2023-05-03T13:42:14.561Z,235.32
2023-05-03T13:43:14.587Z,233.27
2023-05-03T13:44:14.591Z,234.17
2023-05-03T13:45:14.581Z,233.66
2023-05-03T13:46:13.668Z,234.25
2023-05-03T13:47:13.596Z,234.71
2023-05-03T13:48:18.288Z,234.11
2023-05-03T13:49:14.115Z,234.14
2023-05-03T13:50:13.880Z,234.24
2023-05-03T13:51:14.878Z,233.65
2023-05-03T13:52:14.878Z,234.04
2023-05-03T13:53:13.929Z,232.46
2023-05-03T13:54:13.901Z,232.83
2023-05-03T13:55:14.931Z,233.68
2023-05-03T13:56:14.915Z,231.82
2023-05-03T13:57:13.931Z,230.69
2023-05-03T13:58:13.984Z,230.97
2023-05-03T13:59:14.950Z,231.00
2023-05-03T14:00:14.974Z,229.89
2023-05-03T14:01:14.998Z,230.66
2023-05-03T14:02:13.962Z,230.28
2023-05-03T14:03:14.201Z,228.59
2023-05-03T14:04:14.127Z,230.58
2023-05-03T14:05:13.988Z,227.77
2023-05-03T14:06:15.022Z,228.37
2023-05-03T14:07:13.997Z,228.16
2023-05-03T14:08:15.019Z,228.50
2023-05-03T14:09:15.050Z,228.28
2023-05-03T14:10:15.008Z,226.99
2023-05-03T14:11:14.039Z,226.61
2023-05-03T14:12:14.019Z,227.33
2023-05-03T14:13:15.067Z,226.82
2023-05-03T14:14:14.049Z,224.86
2023-05-03T14:15:15.129Z,224.70
2023-05-03T14:16:15.822Z,224.44
2023-05-03T14:17:15.318Z,223.62
2023-05-03T14:18:14.155Z,224.25
2023-05-03T14:19:14.201Z,224.24
2023-05-03T14:20:14.222Z,222.99
2023-05-03T14:21:15.088Z,223.49
2023-05-03T14:22:14.098Z,222.11
2023-05-03T14:23:14.103Z,221.23
2023-05-03T14:24:14.126Z,219.66
2023-05-03T14:25:15.120Z,221.82
2023-05-03T14:26:14.144Z,220.68
2023-05-03T14:27:14.155Z,219.58
2023-05-03T14:28:15.117Z,221.07
2023-05-03T14:29:15.138Z,220.91
2023-05-03T14:30:15.172Z,220.57
2023-05-03T14:31:15.193Z,219.03
2023-05-03T14:32:14.148Z,220.56
2023-05-03T14:33:14.186Z,218.73
2023-05-03T14:34:15.191Z,218.97
2023-05-03T14:35:14.165Z,217.55
2023-05-03T14:36:14.188Z,217.83
2023-05-03T14:37:14.186Z,218.64
2023-05-03T14:38:14.201Z,217.68
2023-05-03T14:39:14.189Z,219.32
2023-05-03T14:40:15.224Z,215.82
2023-05-03T14:41:15.207Z,218.05
2023-05-03T14:42:15.214Z,215.86
2023-05-03T14:43:14.222Z,216.36
2023-05-03T14:44:15.226Z,215.25
2023-05-03T14:45:15.242Z,214.69
2023-05-03T14:46:14.276Z,214.78
2023-05-03T14:47:15.240Z,215.85
2023-05-03T14:48:15.223Z,214.98
2023-05-03T14:49:15.219Z,213.05
2023-05-03T14:50:15.250Z,214.91
2023-05-03T14:51:14.247Z,214.75
2023-05-03T14:52:14.368Z,215.50
2023-05-03T14:53:14.284Z,215.11
2023-05-03T14:54:14.267Z,215.18
2023-05-03T14:55:15.267Z,213.27
2023-05-03T14:56:15.265Z,211.29
2023-05-03T14:57:14.289Z,213.62
2023-05-03T14:58:15.810Z,212.73
2023-05-03T14:59:15.276Z,212.02
2023-05-03T15:00:15.291Z,212.83
2023-05-03T15:01:15.354Z,210.17
2023-05-03T15:02:15.315Z,210.53
2023-05-03T15:03:15.326Z,209.57
2023-05-03T15:04:15.320Z,209.78
2023-05-03T15:05:15.306Z,209.59
2023-05-03T15:06:14.326Z,209.40
2023-05-03T15:07:15.327Z,209.29
2023-05-03T15:08:14.427Z,209.91
2023-05-03T15:09:15.339Z,209.97
2023-05-03T15:10:15.367Z,208.93
2023-05-03T15:11:15.359Z,209.24
2023-05-03T15:12:14.369Z,208.12
2023-05-03T15:13:15.734Z,206.72
2023-05-03T15:14:14.416Z,207.83
2023-05-03T15:15:15.367Z,208.40
2023-05-03T15:16:15.412Z,207.39
2023-05-03T15:17:15.370Z,206.95
2023-05-03T15:18:15.391Z,207.70
2023-05-03T15:19:15.373Z,205.26
2023-05-03T15:20:14.359Z,205.98
2023-05-03T15:21:15.375Z,205.65
2023-05-03T15:22:14.351Z,206.41
2023-05-03T15:23:15.377Z,207.16
2023-05-03T15:24:14.415Z,205.96
2023-05-03T15:25:14.392Z,204.18
2023-05-03T15:26:15.412Z,204.67
2023-05-03T15:27:14.430Z,204.47
2023-05-03T15:28:15.449Z,203.74
2023-05-03T15:29:15.474Z,204.16
